createdAt,value
2018-01-14T00:00:06.923Z,102526.50
2018-01-14T00:02:34.410Z,102523.06
2018-01-14T00:05:02.619Z,102525.00
2018-01-14T00:07:30.114Z,102519.75
2018-01-14T00:09:57.661Z,102528.22
2018-01-14T00:12:25.138Z,102526.02
2018-01-14T00:14:52.635Z,102528.81
2018-01-14T00:17:20.122Z,102526.72
2018-01-14T00:19:47.627Z,102526.26
2018-01-14T00:22:15.138Z,102528.64
2018-01-14T00:24:42.631Z,102523.40
2018-01-14T00:27:10.118Z,102525.00
2018-01-14T00:29:37.669Z,102529.32
2018-01-14T00:32:05.164Z,102522.68
2018-01-14T00:34:32.691Z,102519.61
2018-01-14T00:37:00.211Z,102520.86
2018-01-14T00:39:27.722Z,102522.69
2018-01-14T00:41:55.250Z,102521.69
2018-01-14T00:44:22.736Z,102518.33
2018-01-14T00:46:50.237Z,102520.41
2018-01-14T00:49:17.762Z,102508.35
2018-01-14T00:51:45.292Z,102514.50
2018-01-14T00:54:12.822Z,102513.00
2018-01-14T00:56:40.298Z,102511.28
2018-01-14T00:59:07.780Z,102512.93
2018-01-14T01:01:36.164Z,102518.18
2018-01-14T01:04:03.670Z,102516.48
2018-01-14T01:06:31.167Z,102520.45
2018-01-14T01:08:58.659Z,102512.34
2018-01-14T01:11:26.172Z,102520.20
2018-01-14T01:13:53.674Z,102513.71
2018-01-14T01:16:21.147Z,102507.05
2018-01-14T01:18:48.651Z,102510.23
2018-01-14T01:21:16.111Z,102508.67
2018-01-14T01:23:43.600Z,102508.67
2018-01-14T01:26:11.091Z,102509.30
2018-01-14T01:28:38.597Z,102510.47
2018-01-14T01:31:06.297Z,102506.17
2018-01-14T01:33:33.766Z,102501.83
2018-01-14T01:36:01.249Z,102493.94
2018-01-14T01:38:28.773Z,102496.09
2018-01-14T01:40:56.261Z,102499.17
2018-01-14T01:43:23.741Z,102498.49
2018-01-14T01:45:51.438Z,102500.47
2018-01-14T01:48:18.920Z,102493.27
2018-01-14T01:50:46.391Z,102496.73
2018-01-14T01:53:14.100Z,102482.89
2018-01-14T01:55:41.586Z,102490.62
2018-01-14T01:58:09.074Z,102490.29
2018-01-14T02:00:36.602Z,102495.71
2018-01-14T02:03:04.106Z,102494.09
2018-01-14T02:05:31.583Z,102486.91
2018-01-14T02:07:59.289Z,102487.76
2018-01-14T02:10:26.801Z,102487.98
2018-01-14T02:12:54.285Z,102494.80
2018-01-14T02:15:21.797Z,102491.58
2018-01-14T02:17:49.317Z,102490.05
2018-01-14T02:20:19.626Z,102490.31
2018-01-14T02:22:47.150Z,102493.35
2018-01-14T02:25:14.634Z,102497.05
2018-01-14T02:27:42.141Z,102504.38
2018-01-14T02:30:09.885Z,102502.04
2018-01-14T02:32:37.352Z,102511.87
2018-01-14T02:35:04.832Z,102505.44
2018-01-14T02:37:32.331Z,102509.69
2018-01-14T02:39:59.801Z,102511.87
2018-01-14T02:42:27.289Z,102496.20
2018-01-14T02:44:54.807Z,102502.69
2018-01-14T02:47:22.294Z,102503.31
2018-01-14T02:49:49.792Z,102503.84
2018-01-14T02:52:17.294Z,102505.07
2018-01-14T02:54:44.775Z,102509.58
2018-01-14T02:57:12.243Z,102516.08
2018-01-14T02:59:39.961Z,102511.98
2018-01-14T03:02:07.448Z,102519.62
2018-01-14T03:04:34.941Z,102519.16
2018-01-14T03:07:02.441Z,102515.06
2018-01-14T03:09:29.917Z,102514.53
2018-01-14T03:11:57.437Z,102518.93
2018-01-14T03:14:24.906Z,102518.25
2018-01-14T03:16:52.402Z,102514.16
2018-01-14T03:19:19.946Z,102516.31
2018-01-14T03:21:47.414Z,102518.72
2018-01-14T03:24:14.943Z,102513.72
2018-01-14T03:26:42.525Z,102516.69
2018-01-14T03:29:10.154Z,102514.83
2018-01-14T03:31:37.637Z,102512.98
2018-01-14T03:34:05.103Z,102506.15
2018-01-14T03:36:32.638Z,102506.63
2018-01-14T03:39:00.134Z,102506.72
2018-01-14T03:41:27.637Z,102506.34
2018-01-14T03:43:55.206Z,102500.36
2018-01-14T03:46:22.679Z,102498.61
2018-01-14T03:48:50.245Z,102492.94
2018-01-14T03:51:17.736Z,102493.30
2018-01-14T03:53:45.238Z,102494.35
2018-01-14T03:56:12.719Z,102494.69
2018-01-14T03:58:40.370Z,102502.27
2018-01-14T04:01:07.925Z,102495.93
2018-01-14T04:03:35.427Z,102485.42
2018-01-14T04:06:02.921Z,102485.16
2018-01-14T04:08:30.385Z,102485.73
2018-01-14T04:10:57.889Z,102485.92
2018-01-14T04:13:25.361Z,102481.09
2018-01-14T04:15:52.837Z,102490.08
2018-01-14T04:18:20.329Z,102479.78
2018-01-14T04:20:47.821Z,102481.48
2018-01-14T04:23:15.318Z,102477.49
2018-01-14T04:25:42.837Z,102473.27
2018-01-14T04:28:10.322Z,102477.37
2018-01-14T04:30:38.498Z,102476.56
2018-01-14T04:33:05.995Z,102488.41
2018-01-14T04:35:33.493Z,102492.48
2018-01-14T04:38:00.983Z,102495.86
2018-01-14T04:40:28.467Z,102483.64
2018-01-14T04:42:55.972Z,102476.55
2018-01-14T04:45:23.442Z,102481.55
2018-01-14T04:47:50.941Z,102475.45
2018-01-14T04:50:18.451Z,102477.42
2018-01-14T04:52:45.974Z,102487.17
2018-01-14T04:55:13.472Z,102482.23
2018-01-14T04:57:40.964Z,102483.49
2018-01-14T05:00:08.793Z,102475.95
2018-01-14T05:02:36.262Z,102484.48
2018-01-14T05:05:04.565Z,102480.27
2018-01-14T05:07:32.095Z,102474.31
2018-01-14T05:09:59.571Z,102476.91
2018-01-14T05:12:27.084Z,102485.88
2018-01-14T05:14:54.604Z,102483.91
2018-01-14T05:17:22.117Z,102486.99
2018-01-14T05:19:49.715Z,102497.68
2018-01-14T05:22:17.240Z,102495.02
2018-01-14T05:24:44.705Z,102500.13
2018-01-14T05:27:12.213Z,102494.39
2018-01-14T05:29:39.698Z,102497.83
2018-01-14T05:32:07.224Z,102494.33
2018-01-14T05:34:34.742Z,102493.00
2018-01-14T05:37:02.229Z,102496.84
2018-01-14T05:39:29.722Z,102492.58
2018-01-14T05:41:57.213Z,102486.48
2018-01-14T05:44:24.690Z,102488.35
2018-01-14T05:46:52.151Z,102495.17
2018-01-14T05:49:19.730Z,102492.84
2018-01-14T05:51:47.233Z,102487.14
2018-01-14T05:54:14.730Z,102484.58
2018-01-14T05:56:42.514Z,102485.75
2018-01-14T05:59:09.992Z,102490.55
2018-01-14T06:01:37.466Z,102501.03
2018-01-14T06:04:04.987Z,102497.11
2018-01-14T06:06:32.490Z,102490.92
2018-01-14T06:08:59.965Z,102499.43
2018-01-14T06:11:27.471Z,102501.75
2018-01-14T06:13:54.956Z,102497.71
2018-01-14T06:16:22.413Z,102489.14
2018-01-14T06:18:49.936Z,102492.79
2018-01-14T06:21:17.436Z,102490.25
2018-01-14T06:23:44.906Z,102491.25
2018-01-14T06:26:12.406Z,102503.83
2018-01-14T06:28:39.869Z,102490.64
2018-01-14T06:31:07.374Z,102496.19
2018-01-14T06:33:34.889Z,102488.34
2018-01-14T06:36:02.366Z,102489.12
2018-01-14T06:38:29.842Z,102492.86
2018-01-14T06:40:57.355Z,102494.31
2018-01-14T06:43:24.837Z,102491.32
2018-01-14T06:45:52.336Z,102499.56
2018-01-14T06:48:19.834Z,102498.95
2018-01-14T06:50:47.325Z,102494.97
2018-01-14T06:53:14.853Z,102493.41
2018-01-14T06:55:42.330Z,102492.11
2018-01-14T06:58:09.977Z,102493.49
2018-01-14T07:00:37.493Z,102494.73
2018-01-14T07:03:05.079Z,102492.59
2018-01-14T07:05:32.583Z,102494.10
2018-01-14T07:08:00.297Z,102500.20
2018-01-14T07:10:27.786Z,102494.52
2018-01-14T07:12:55.278Z,102494.44
2018-01-14T07:15:22.794Z,102492.69
2018-01-14T07:17:50.281Z,102491.51
2018-01-14T07:20:17.766Z,102495.37
2018-01-14T07:22:45.287Z,102497.60
2018-01-14T07:25:12.785Z,102491.17
2018-01-14T07:27:40.281Z,102491.88
2018-01-14T07:30:07.803Z,102484.33
2018-01-14T07:32:35.278Z,102486.71
2018-01-14T07:35:02.845Z,102485.77
2018-01-14T07:37:30.382Z,102492.50
2018-01-14T07:39:57.973Z,102490.13
2018-01-14T07:42:25.475Z,102500.68
2018-01-14T07:44:52.998Z,102500.92
2018-01-14T07:47:20.497Z,102500.86
2018-01-14T07:49:47.994Z,102497.58
2018-01-14T07:52:15.519Z,102497.48
2018-01-14T07:54:43.106Z,102490.38
2018-01-14T07:57:10.617Z,102494.20
2018-01-14T07:59:38.113Z,102496.92
2018-01-14T08:02:05.669Z,102493.45
2018-01-14T08:04:33.165Z,102506.86
2018-01-14T08:07:00.668Z,102501.81
2018-01-14T08:09:28.253Z,102503.17
2018-01-14T08:11:55.807Z,102501.84
2018-01-14T08:14:23.374Z,102503.33
2018-01-14T08:16:50.908Z,102494.93
2018-01-14T08:19:18.572Z,102502.59
2018-01-14T08:21:46.083Z,102503.95
2018-01-14T08:24:13.614Z,102504.14
2018-01-14T08:26:41.121Z,102505.23
2018-01-14T08:29:08.621Z,102507.42
2018-01-14T08:31:36.124Z,102503.66
2018-01-14T08:34:03.822Z,102500.63
2018-01-14T08:36:31.302Z,102506.17
2018-01-14T08:38:58.787Z,102501.88
2018-01-14T08:41:26.510Z,102506.30
2018-01-14T08:43:53.987Z,102503.42
2018-01-14T08:46:21.462Z,102504.63
2018-01-14T08:48:48.965Z,102504.81
2018-01-14T08:51:16.473Z,102505.09
2018-01-14T08:53:43.974Z,102503.68
2018-01-14T08:56:11.850Z,102504.41
2018-01-14T08:58:39.344Z,102501.70
2018-01-14T09:01:06.861Z,102502.03
2018-01-14T09:03:34.345Z,102509.53
2018-01-14T09:06:01.838Z,102504.20
2018-01-14T09:08:29.353Z,102513.13
2018-01-14T09:10:56.893Z,102512.91
2018-01-14T09:13:24.370Z,102509.14
2018-01-14T09:15:51.919Z,102505.45
2018-01-14T09:18:19.386Z,102502.20
2018-01-14T09:20:46.854Z,102506.29
2018-01-14T09:23:14.421Z,102508.56
2018-01-14T09:25:41.917Z,102511.64
2018-01-14T09:28:09.422Z,102511.31
2018-01-14T09:30:48.586Z,102514.33
2018-01-14T09:33:16.130Z,102509.25
2018-01-14T09:35:43.666Z,102515.42
2018-01-14T09:38:11.191Z,102511.66
2018-01-14T09:40:38.673Z,102514.50
2018-01-14T09:43:06.237Z,102511.69
2018-01-14T09:45:33.730Z,102511.25
2018-01-14T09:48:01.204Z,102511.92
2018-01-14T09:50:28.667Z,102510.67
2018-01-14T09:52:56.187Z,102511.59
2018-01-14T09:55:23.654Z,102516.70
2018-01-14T09:57:51.142Z,102513.51
2018-01-14T10:00:18.624Z,102505.00
2018-01-14T10:02:46.088Z,102512.44
2018-01-14T10:05:13.614Z,102514.25
2018-01-14T10:07:41.109Z,102513.58
2018-01-14T10:10:08.602Z,102512.16
2018-01-14T10:12:36.121Z,102513.73
2018-01-14T10:15:03.613Z,102515.44
2018-01-14T10:17:31.099Z,102509.31
2018-01-14T10:19:58.594Z,102510.28
2018-01-14T10:22:26.089Z,102501.91
2018-01-14T10:24:53.584Z,102497.08
2018-01-14T10:27:21.109Z,102490.48
2018-01-14T10:29:48.578Z,102495.82
2018-01-14T10:32:16.058Z,102496.56
2018-01-14T10:34:43.557Z,102501.27
2018-01-14T10:37:11.043Z,102496.70
2018-01-14T10:39:38.757Z,102485.89
2018-01-14T10:42:06.299Z,102482.88
2018-01-14T10:44:33.775Z,102477.12
2018-01-14T10:47:01.370Z,102478.07
2018-01-14T10:49:28.861Z,102481.09
2018-01-14T10:51:56.333Z,102478.98
2018-01-14T10:54:23.823Z,102479.23
2018-01-14T10:56:51.314Z,102482.88
2018-01-14T10:59:18.778Z,102480.31
2018-01-14T11:01:46.281Z,102479.72
2018-01-14T11:04:13.789Z,102482.21
2018-01-14T11:06:41.270Z,102465.69
2018-01-14T11:09:12.034Z,102469.47
2018-01-14T11:11:36.283Z,102463.16
2018-01-14T11:14:03.809Z,102462.77
2018-01-14T11:16:32.514Z,102464.31
2018-01-14T11:18:59.977Z,102456.67
2018-01-14T11:21:27.466Z,102451.41
2018-01-14T11:23:54.947Z,102448.88
2018-01-14T11:26:22.555Z,102444.95
2018-01-14T11:28:52.817Z,102449.75
2018-01-14T11:31:20.527Z,102443.46
2018-01-14T11:33:48.022Z,102442.17
2018-01-14T11:36:15.490Z,102436.73
2018-01-14T11:38:43.047Z,102444.85
2018-01-14T11:41:10.534Z,102439.82
2018-01-14T11:43:38.064Z,102442.75
2018-01-14T11:46:05.547Z,102435.28
2018-01-14T11:48:33.676Z,102433.32
2018-01-14T11:51:01.181Z,102433.15
2018-01-14T11:53:28.831Z,102430.14
2018-01-14T11:55:56.291Z,102423.07
2018-01-14T11:58:23.765Z,102422.61
2018-01-14T12:00:51.305Z,102418.31
2018-01-14T12:03:18.811Z,102416.89
2018-01-14T12:05:46.298Z,102411.19
2018-01-14T12:08:13.782Z,102412.16
2018-01-14T12:10:41.245Z,102417.55
2018-01-14T12:13:08.738Z,102410.64
2018-01-14T12:15:36.232Z,102408.17
2018-01-14T12:18:03.696Z,102417.98
2018-01-14T12:20:31.169Z,102415.38
2018-01-14T12:22:58.652Z,102417.14
2018-01-14T12:25:26.198Z,102423.88
2018-01-14T12:27:53.726Z,102417.20
2018-01-14T12:30:21.213Z,102406.66
2018-01-14T12:33:00.422Z,102414.31
2018-01-14T12:35:27.995Z,102407.62
2018-01-14T12:37:55.577Z,102407.80
2018-01-14T12:40:23.104Z,102404.53
2018-01-14T12:42:50.722Z,102409.26
2018-01-14T12:45:18.210Z,102399.20
2018-01-14T12:47:45.682Z,102399.44
2018-01-14T12:50:13.176Z,102398.23
2018-01-14T12:52:40.684Z,102396.38
2018-01-14T12:55:08.150Z,102389.71
2018-01-14T12:57:35.630Z,102386.64
2018-01-14T13:00:03.138Z,102392.23
2018-01-14T13:02:30.854Z,102387.97
2018-01-14T13:04:58.363Z,102387.56
2018-01-14T13:07:25.873Z,102387.97
2018-01-14T13:09:54.290Z,102383.69
2018-01-14T13:12:21.774Z,102376.83
2018-01-14T13:14:49.266Z,102379.20
2018-01-14T13:17:16.824Z,102384.90
2018-01-14T13:19:44.293Z,102385.08
2018-01-14T13:22:11.782Z,102387.94
2018-01-14T13:24:39.282Z,102390.53
2018-01-14T13:27:06.791Z,102385.87
2018-01-14T13:29:34.255Z,102383.17
2018-01-14T13:32:01.750Z,102386.22
2018-01-14T13:34:29.250Z,102378.70
2018-01-14T13:36:56.715Z,102378.83
2018-01-14T13:39:24.251Z,102381.67
2018-01-14T13:41:51.746Z,102376.05
2018-01-14T13:44:19.255Z,102378.89
2018-01-14T13:46:46.795Z,102377.31
2018-01-14T13:49:14.290Z,102371.48
2018-01-14T13:51:41.801Z,102370.33
2018-01-14T13:54:09.297Z,102373.48
2018-01-14T13:56:36.959Z,102371.53
2018-01-14T13:59:04.444Z,102364.20
2018-01-14T14:01:31.954Z,102356.38
2018-01-14T14:03:59.475Z,102358.38
2018-01-14T14:06:26.956Z,102360.08
2018-01-14T14:08:54.452Z,102362.07
2018-01-14T14:11:22.250Z,102366.50
2018-01-14T14:13:49.727Z,102363.90
2018-01-14T14:16:18.024Z,102358.78
2018-01-14T14:18:45.729Z,102363.27
2018-01-14T14:21:13.218Z,102361.98
2018-01-14T14:23:40.693Z,102357.09
2018-01-14T14:26:08.233Z,102356.25
2018-01-14T14:28:35.745Z,102361.26
2018-01-14T14:31:03.238Z,102371.91
2018-01-14T14:33:30.851Z,102371.56
2018-01-14T14:35:58.349Z,102363.52
2018-01-14T14:38:25.839Z,102370.90
2018-01-14T14:40:53.335Z,102365.05
2018-01-14T14:43:20.808Z,102364.78
2018-01-14T14:45:48.282Z,102359.28
2018-01-14T14:48:15.772Z,102363.48
2018-01-14T14:50:43.257Z,102359.89
2018-01-14T14:53:10.790Z,102354.98
2018-01-14T14:55:38.286Z,102356.80
2018-01-14T14:58:05.827Z,102357.14
2018-01-14T15:00:33.338Z,102353.31
2018-01-14T15:03:00.850Z,102358.89
2018-01-14T15:05:28.366Z,102354.75
2018-01-14T15:07:55.870Z,102359.13
2018-01-14T15:10:23.384Z,102358.87
2018-01-14T15:12:50.882Z,102362.72
2018-01-14T15:15:18.586Z,102352.56
2018-01-14T15:17:46.121Z,102347.23
2018-01-14T15:20:13.611Z,102347.16
2018-01-14T15:22:41.108Z,102349.49
2018-01-14T15:25:08.566Z,102350.44
2018-01-14T15:27:36.058Z,102346.27
2018-01-14T15:30:03.840Z,102349.94
2018-01-14T15:32:31.334Z,102348.09
2018-01-14T15:34:58.839Z,102353.59
2018-01-14T15:37:26.363Z,102346.83
2018-01-14T15:39:54.668Z,102348.23
2018-01-14T15:42:22.186Z,102345.56
2018-01-14T15:44:49.724Z,102342.20
2018-01-14T15:47:17.210Z,102339.09
2018-01-14T15:49:44.711Z,102348.77
2018-01-14T15:52:12.252Z,102355.75
2018-01-14T15:54:39.748Z,102342.61
2018-01-14T15:57:07.232Z,102344.75
2018-01-14T15:59:34.744Z,102342.32
2018-01-14T16:02:02.263Z,102344.92
2018-01-14T16:04:29.990Z,102349.05
2018-01-14T16:06:57.491Z,102346.68
2018-01-14T16:09:25.630Z,102353.13
2018-01-14T16:11:53.102Z,102350.63
2018-01-14T16:14:20.574Z,102348.14
2018-01-14T16:16:48.063Z,102343.92
2018-01-14T16:19:15.554Z,102347.88
2018-01-14T16:21:43.071Z,102346.91
2018-01-14T16:24:10.579Z,102347.05
2018-01-14T16:26:38.079Z,102345.32
2018-01-14T16:29:05.604Z,102348.30
2018-01-14T16:31:33.113Z,102346.13
2018-01-14T16:34:01.197Z,102355.12
2018-01-14T16:36:28.690Z,102347.53
2018-01-14T16:38:56.819Z,102339.30
2018-01-14T16:41:24.305Z,102339.81
2018-01-14T16:43:51.806Z,102338.23
2018-01-14T16:46:19.322Z,102340.53
2018-01-14T16:48:46.800Z,102337.63
2018-01-14T16:51:14.324Z,102336.00
2018-01-14T16:53:41.814Z,102339.38
2018-01-14T16:56:09.284Z,102339.70
2018-01-14T16:58:36.804Z,102332.05
2018-01-14T17:01:05.063Z,102331.05
2018-01-14T17:03:32.580Z,102339.60
2018-01-14T17:06:00.104Z,102341.19
2018-01-14T17:08:27.571Z,102339.41
2018-01-14T17:10:55.046Z,102344.23
2018-01-14T17:13:22.573Z,102342.00
2018-01-14T17:15:50.036Z,102348.13
2018-01-14T17:18:17.521Z,102345.56
2018-01-14T17:20:45.001Z,102337.59
2018-01-14T17:23:12.499Z,102338.50
2018-01-14T17:25:40.018Z,102347.47
2018-01-14T17:28:07.535Z,102336.42
2018-01-14T17:30:35.163Z,102335.58
2018-01-14T17:33:02.659Z,102338.14
2018-01-14T17:35:30.146Z,102336.81
2018-01-14T17:37:57.658Z,102331.14
2018-01-14T17:40:25.159Z,102326.83
2018-01-14T17:42:52.702Z,102332.40
2018-01-14T17:45:20.368Z,102334.80
2018-01-14T17:47:47.850Z,102329.19
2018-01-14T17:50:15.313Z,102334.25
2018-01-14T17:52:42.793Z,102335.06
2018-01-14T17:55:10.283Z,102329.91
2018-01-14T17:57:37.808Z,102341.50
2018-01-14T18:00:05.301Z,102334.53
2018-01-14T18:02:32.802Z,102335.12
2018-01-14T18:05:00.313Z,102334.59
2018-01-14T18:07:27.800Z,102333.42
2018-01-14T18:09:55.291Z,102348.20
2018-01-14T18:12:22.809Z,102339.16
2018-01-14T18:14:50.283Z,102338.51
2018-01-14T18:17:25.634Z,102332.77
2018-01-14T18:19:53.150Z,102329.85
2018-01-14T18:22:20.648Z,102326.45
2018-01-14T18:24:48.150Z,102327.84
2018-01-14T18:27:15.647Z,102319.55
2018-01-14T18:29:43.173Z,102324.59
2018-01-14T18:32:10.726Z,102317.91
2018-01-14T18:34:38.198Z,102313.41
2018-01-14T18:37:05.740Z,102320.92
2018-01-14T18:39:33.243Z,102319.59
2018-01-14T18:42:00.745Z,102318.40
2018-01-14T18:44:28.260Z,102320.82
2018-01-14T18:46:55.749Z,102316.44
2018-01-14T18:49:23.305Z,102320.09
2018-01-14T18:51:50.864Z,102321.09
2018-01-14T18:54:18.357Z,102320.41
2018-01-14T18:56:45.884Z,102319.88
2018-01-14T18:59:13.360Z,102322.11
2018-01-14T19:01:40.827Z,102326.50
2018-01-14T19:04:08.352Z,102325.98
2018-01-14T19:06:35.847Z,102324.75
2018-01-14T19:09:03.371Z,102324.50
2018-01-14T19:11:30.927Z,102323.17
2018-01-14T19:13:58.439Z,102321.36
2018-01-14T19:16:25.943Z,102317.38
2018-01-14T19:18:53.679Z,102311.31
2018-01-14T19:21:21.177Z,102308.09
2018-01-14T19:23:48.662Z,102302.17
2018-01-14T19:26:16.180Z,102314.67
2018-01-14T19:28:43.702Z,102309.88
2018-01-14T19:31:11.222Z,102304.16
2018-01-14T19:33:38.691Z,102310.80
2018-01-14T19:36:06.186Z,102314.06
2018-01-14T19:38:33.699Z,102309.98
2018-01-14T19:41:01.229Z,102310.50
2018-01-14T19:43:28.793Z,102308.03
2018-01-14T19:45:56.312Z,102297.34
2018-01-14T19:48:23.829Z,102296.13
2018-01-14T19:50:51.335Z,102290.52
2018-01-14T19:53:18.856Z,102287.77
2018-01-14T19:55:46.334Z,102289.33
2018-01-14T19:58:13.855Z,102285.77
2018-01-14T20:00:41.342Z,102291.01
2018-01-14T20:03:08.847Z,102284.59
2018-01-14T20:05:36.338Z,102276.30
2018-01-14T20:08:04.019Z,102274.27
2018-01-14T20:10:31.502Z,102275.54
2018-01-14T20:12:58.996Z,102275.78
2018-01-14T20:15:26.531Z,102274.10
2018-01-14T20:17:53.991Z,102265.72
2018-01-14T20:20:21.542Z,102267.83
2018-01-14T20:22:49.105Z,102263.09
2018-01-14T20:25:16.619Z,102262.96
2018-01-14T20:27:44.121Z,102254.34
2018-01-14T20:30:11.662Z,102265.64
2018-01-14T20:32:39.150Z,102259.27
2018-01-14T20:35:06.658Z,102258.09
2018-01-14T20:37:34.234Z,102266.88
2018-01-14T20:40:01.743Z,102262.73
2018-01-14T20:42:29.258Z,102259.33
2018-01-14T20:44:56.752Z,102264.13
2018-01-14T20:47:24.318Z,102265.22
2018-01-14T20:49:51.877Z,102270.52
2018-01-14T20:52:19.433Z,102270.31
2018-01-14T20:54:46.954Z,102271.05
2018-01-14T20:57:14.457Z,102268.27
2018-01-14T20:59:41.925Z,102265.48
2018-01-14T21:02:09.499Z,102266.02
2018-01-14T21:04:36.993Z,102264.75
2018-01-14T21:07:04.474Z,102263.17
2018-01-14T21:09:32.142Z,102255.34
2018-01-14T21:11:59.626Z,102252.16
2018-01-14T21:14:27.129Z,102244.03
2018-01-14T21:16:54.642Z,102244.26
2018-01-14T21:19:22.135Z,102249.41
2018-01-14T21:21:49.634Z,102244.30
2018-01-14T21:24:17.153Z,102251.84
2018-01-14T21:26:44.754Z,102245.81
2018-01-14T21:29:12.226Z,102244.20
2018-01-14T21:31:39.962Z,102248.94
2018-01-14T21:34:07.450Z,102246.23
2018-01-14T21:36:35.090Z,102252.42
2018-01-14T21:39:02.563Z,102243.39
2018-01-14T21:41:30.084Z,102243.30
2018-01-14T21:43:57.580Z,102247.66
2018-01-14T21:46:25.127Z,102247.66
2018-01-14T21:48:52.598Z,102258.39
2018-01-14T21:51:20.097Z,102255.34
2018-01-14T21:53:47.570Z,102247.03
2018-01-14T21:56:15.134Z,102244.63
2018-01-14T21:58:42.637Z,102242.14
2018-01-14T22:01:10.199Z,102238.03
2018-01-14T22:03:37.712Z,102252.73
2018-01-14T22:06:05.250Z,102247.06
2018-01-14T22:08:32.763Z,102239.67
2018-01-14T22:11:00.274Z,102244.08
2018-01-14T22:13:27.802Z,102244.89
2018-01-14T22:15:55.343Z,102240.78
2018-01-14T22:18:22.826Z,102243.67
2018-01-14T22:20:50.328Z,102235.31
2018-01-14T22:23:17.815Z,102233.17
2018-01-14T22:25:45.282Z,102227.25
2018-01-14T22:28:12.930Z,102229.16
2018-01-14T22:30:40.421Z,102217.72
2018-01-14T22:33:07.902Z,102211.17
2018-01-14T22:35:35.571Z,102210.23
2018-01-14T22:38:03.035Z,102206.48
2018-01-14T22:40:30.494Z,102205.65
2018-01-14T22:42:58.010Z,102201.08
2018-01-14T22:45:25.498Z,102199.95
2018-01-14T22:47:52.994Z,102203.45
2018-01-14T22:50:20.506Z,102196.09
2018-01-14T22:52:48.040Z,102181.03
2018-01-14T22:55:15.502Z,102188.97
2018-01-14T22:57:43.148Z,102184.08
2018-01-14T23:00:10.609Z,102186.41
2018-01-14T23:02:38.094Z,102184.47
2018-01-14T23:05:06.615Z,102186.05
2018-01-14T23:07:34.087Z,102184.34
2018-01-14T23:10:01.601Z,102175.66
2018-01-14T23:12:29.113Z,102167.56
2018-01-14T23:15:11.265Z,102173.36
2018-01-14T23:17:38.817Z,102166.83
2018-01-14T23:20:06.375Z,102165.98
2018-01-14T23:22:33.896Z,102165.88
2018-01-14T23:25:01.395Z,102166.83
2018-01-14T23:27:28.882Z,102173.14
2018-01-14T23:29:56.423Z,102171.33
2018-01-14T23:32:23.889Z,102180.39
2018-01-14T23:34:51.396Z,102179.45
2018-01-14T23:37:18.913Z,102169.51
2018-01-14T23:39:46.406Z,102169.06
2018-01-14T23:42:13.928Z,102162.19
2018-01-14T23:44:41.395Z,102159.79
2018-01-14T23:47:08.865Z,102149.33
2018-01-14T23:49:36.394Z,102148.59
2018-01-14T23:52:03.878Z,102145.19
2018-01-14T23:54:31.362Z,102143.28
2018-01-14T23:56:58.849Z,102135.96
2018-01-14T23:59:26.307Z,102134.14
